Time;durP1;ratioP1;P1;durP2;ratioP2;P2;SDS_P1;SDS_P2;PMS_P1;PMS_P2;Temp;Humidity;BMP_temperature;BMP_pressure;BME280_temperature;BME280_humidity;BME280_pressure;Samples;Min_cycle;Max_cycle;Signal;HPM_P1;HPM_P2
2022/12/28 00:01:10;;;;;;;6.17;3.10;;;8.20;99.90;;;;;;5092288;28;20167;-75
2022/12/28 00:03:35;;;;;;;7.57;3.67;;;8.20;99.90;;;;;;5074374;28;20247;-75
2022/12/28 00:06:02;;;;;;;7.57;3.10;;;8.10;99.90;;;;;;5092676;28;20196;-74
2022/12/28 00:08:29;;;;;;;6.07;3.30;;;8.10;99.90;;;;;;5074533;28;20173;-76
2022/12/28 00:11:06;;;;;;;9.43;3.83;;;8.10;99.90;;;;;;5092648;28;20259;-76
2022/12/28 00:13:34;;;;;;;7.43;3.40;;;8.10;99.90;;;;;;5092354;28;20518;-74
2022/12/28 00:16:31;;;;;;;5.47;2.87;;;8.10;99.90;;;;;;5092483;28;20571;-74
2022/12/28 00:18:58;;;;;;;3.83;2.70;;;8.10;99.90;;;;;;5044604;28;20668;-75
2022/12/28 00:21:25;;;;;;;5.67;3.20;;;8.00;99.90;;;;;;5091192;28;20195;-74
2022/12/28 00:23:52;;;;;;;6.70;3.47;;;8.10;99.90;;;;;;5092367;28;20580;-76
2022/12/28 00:26:19;;;;;;;7.67;3.00;;;8.10;99.90;;;;;;5092415;28;20173;-75
2022/12/28 00:28:45;;;;;;;6.67;3.47;;;8.20;99.90;;;;;;5092134;28;20236;-75
2022/12/28 00:31:14;;;;;;;5.77;2.73;;;8.20;99.90;;;;;;5092454;28;20165;-75
2022/12/28 00:33:40;;;;;;;6.23;3.23;;;8.20;99.90;;;;;;5092422;28;20528;-76
2022/12/28 00:36:06;;;;;;;6.30;3.70;;;8.20;99.90;;;;;;5092457;28;20169;-75
2022/12/28 00:38:34;;;;;;;6.93;3.60;;;8.30;99.90;;;;;;5092402;28;20279;-75
2022/12/28 00:41:00;;;;;;;6.77;3.13;;;8.40;99.90;;;;;;5074303;28;20165;-75
2022/12/28 00:43:26;;;;;;;5.50;3.10;;;8.30;99.90;;;;;;5092215;28;20548;-74
2022/12/28 00:45:52;;;;;;;6.70;3.30;;;8.40;99.90;;;;;;5074388;28;20166;-74
2022/12/28 00:48:17;;;;;;;5.33;3.27;;;8.30;99.90;;;;;;5074252;28;20223;-76
2022/12/28 00:50:43;;;;;;;4.30;3.07;;;8.20;99.90;;;;;;5092359;28;20175;-75
2022/12/28 00:53:11;;;;;;;8.87;3.13;;;8.30;99.90;;;;;;5092276;28;20156;-75
2022/12/28 00:55:38;;;;;;;5.20;3.23;;;8.30;99.90;;;;;;5092345;28;20174;-75
2022/12/28 00:58:04;;;;;;;7.17;3.20;;;8.40;99.90;;;;;;5074039;28;20194;-75
2022/12/28 01:00:30;;;;;;;6.03;3.30;;;8.30;99.90;;;;;;5092146;28;20177;-75
2022/12/28 01:02:56;;;;;;;4.80;3.30;;;8.20;99.90;;;;;;5092245;28;20168;-74
2022/12/28 01:05:22;;;;;;;5.07;3.10;;;8.30;99.90;;;;;;5092182;28;20165;-75
2022/12/28 01:07:48;;;;;;;6.30;3.03;;;8.40;99.90;;;;;;5094660;28;20170;-76
2022/12/28 01:10:14;;;;;;;7.90;3.27;;;8.50;99.90;;;;;;5095725;28;20248;-74
2022/12/28 01:12:40;;;;;;;4.83;3.20;;;8.60;99.90;;;;;;5095484;28;20175;-74
2022/12/28 01:15:07;;;;;;;5.03;3.30;;;8.50;99.90;;;;;;5095545;28;20189;-75
2022/12/28 01:17:34;;;;;;;7.47;3.63;;;8.60;99.90;;;;;;5095419;28;20657;-76
2022/12/28 01:20:00;;;;;;;7.20;3.20;;;8.50;99.90;;;;;;5077217;28;20401;-75
2022/12/28 01:22:27;;;;;;;4.27;3.43;;;8.60;99.90;;;;;;5076924;28;20531;-75
2022/12/28 01:24:52;;;;;;;5.93;3.43;;;8.70;99.90;;;;;;5095224;28;20206;-75
2022/12/28 01:27:20;;;;;;;7.20;3.60;;;8.80;99.90;;;;;;5077072;28;20204;-75
2022/12/28 01:29:46;;;;;;;5.93;3.20;;;8.90;99.90;;;;;;5095169;28;20657;-76
2022/12/28 01:32:12;;;;;;;4.77;3.47;;;8.70;99.90;;;;;;5095143;28;20166;-75
2022/12/28 01:34:38;;;;;;;5.53;3.43;;;8.70;99.90;;;;;;5077210;28;20719;-75
2022/12/28 01:37:04;;;;;;;6.23;3.33;;;8.80;99.90;;;;;;5076930;28;20261;-75
2022/12/28 01:39:30;;;;;;;6.23;3.70;;;8.80;99.90;;;;;;5093701;28;20206;-75
2022/12/28 01:41:56;;;;;;;9.17;3.40;;;8.70;99.90;;;;;;5094880;28;20165;-75
2022/12/28 01:44:24;;;;;;;5.57;3.20;;;8.70;99.90;;;;;;5095161;28;20166;-75
2022/12/28 01:47:01;;;;;;;5.50;3.43;;;8.70;99.90;;;;;;5076909;28;20186;-75
2022/12/28 01:49:36;;;;;;;6.73;3.47;;;8.80;99.90;;;;;;5076996;28;20180;-75
2022/12/28 01:52:17;;;;;;;7.43;3.57;;;8.90;99.90;;;;;;5076753;28;20169;-75
2022/12/28 01:55:13;;;;;;;4.57;3.00;;;8.80;99.90;;;;;;5094838;28;20589;-76
2022/12/28 01:57:50;;;;;;;7.83;3.73;;;8.80;99.90;;;;;;5092855;28;20668;-75
2022/12/28 02:00:16;;;;;;;5.87;3.93;;;8.70;99.90;;;;;;5095027;28;20203;-75
2022/12/28 02:02:49;;;;;;;6.97;3.80;;;8.70;99.90;;;;;;5094829;28;20172;-75
2022/12/28 02:05:17;;;;;;;4.83;3.47;;;8.60;99.90;;;;;;5094829;28;20165;-73
2022/12/28 02:08:01;;;;;;;5.90;3.83;;;8.50;99.90;;;;;;5094736;28;20581;-74
2022/12/28 02:10:27;;;;;;;7.43;3.70;;;8.40;99.90;;;;;;5076242;28;20186;-73
2022/12/28 02:12:54;;;;;;;4.87;3.70;;;8.40;99.90;;;;;;5094350;28;20171;-75
2022/12/28 02:15:20;;;;;;;7.20;4.40;;;8.50;99.90;;;;;;5076612;28;20165;-74
2022/12/28 02:17:47;;;;;;;7.97;3.47;;;8.50;99.90;;;;;;5093799;28;20168;-73
2022/12/28 02:20:13;;;;;;;6.20;3.83;;;8.50;99.90;;;;;;5094062;28;20207;-74
2022/12/28 02:23:06;;;;;;;7.07;3.70;;;8.50;99.90;;;;;;5094378;28;20568;-74
2022/12/28 02:25:50;;;;;;;4.43;3.93;;;8.60;99.90;;;;;;5094161;28;20669;-74
2022/12/28 02:28:37;;;;;;;6.67;3.50;;;8.80;99.90;;;;;;5094271;28;20263;-75
2022/12/28 02:31:10;;;;;;;3.87;3.33;;;8.80;99.90;;;;;;5094237;28;20574;-74
2022/12/28 02:34:04;;;;;;;7.33;3.47;;;8.70;99.90;;;;;;5094257;28;20259;-74
2022/12/28 02:36:38;;;;;;;7.00;3.47;;;8.80;99.90;;;;;;5094243;28;20155;-74
2022/12/28 02:39:12;;;;;;;6.97;3.23;;;8.90;99.90;;;;;;5093764;28;20197;-73
2022/12/28 02:41:40;;;;;;;6.20;3.37;;;8.90;99.90;;;;;;5094058;28;20197;-75
2022/12/28 02:44:06;;;;;;;5.87;3.40;;;8.80;99.90;;;;;;5093951;28;20166;-75
2022/12/28 02:52:31;;;;;;;5.03;2.73;;;8.70;99.90;;;;;;5094111;28;20168;-74
2022/12/28 02:58:51;;;;;;;8.00;3.63;;;8.80;99.90;;;;;;5093387;28;20207;-75
2022/12/28 03:01:37;;;;;;;5.80;2.63;;;8.80;99.90;;;;;;5092260;28;20276;-74
2022/12/28 03:04:21;;;;;;;4.90;2.97;;;8.90;99.90;;;;;;5075272;28;20626;-74
2022/12/28 03:10:20;;;;;;;7.63;3.43;;;9.00;99.90;;;;;;5093348;28;20555;-75
2022/12/28 03:13:00;;;;;;;4.67;2.40;;;8.90;99.90;;;;;;5093509;28;20168;-74
2022/12/28 03:15:33;;;;;;;7.93;2.60;;;8.90;99.90;;;;;;5093308;28;20251;-74
2022/12/28 03:32:06;;;;;;;4.63;3.00;;;9.00;99.90;;;;;;5093385;28;20180;-74
2022/12/28 03:34:32;;;;;;;3.77;2.77;;;9.10;99.90;;;;;;5091866;28;20161;-74
2022/12/28 03:37:08;;;;;;;6.17;3.03;;;9.00;99.90;;;;;;5092793;28;20641;-74
2022/12/28 03:39:57;;;;;;;3.70;2.13;;;8.90;99.90;;;;;;5092749;28;20201;-75
2022/12/28 03:45:28;;;;;;;10.13;3.00;;;9.00;99.90;;;;;;5092786;28;20630;-74
2022/12/28 03:47:56;;;;;;;6.37;2.70;;;9.10;99.90;;;;;;5092548;28;20201;-75
2022/12/28 03:50:22;;;;;;;5.10;2.60;;;9.10;99.90;;;;;;5092496;28;20259;-74
2022/12/28 03:52:48;;;;;;;6.10;2.90;;;9.10;99.90;;;;;;5074149;28;20158;-75
2022/12/28 03:55:17;;;;;;;7.67;2.80;;;9.10;99.90;;;;;;5092489;28;20169;-75
2022/12/28 03:57:43;;;;;;;7.63;2.80;;;9.10;99.90;;;;;;5092515;28;20225;-74
2022/12/28 04:00:09;;;;;;;8.83;3.20;;;9.00;99.90;;;;;;5092439;28;20555;-74
2022/12/28 04:02:36;;;;;;;7.87;2.80;;;9.10;99.90;;;;;;5092425;28;20242;-74
2022/12/28 04:05:02;;;;;;;4.97;2.70;;;9.10;99.90;;;;;;5092350;28;20253;-74
2022/12/28 04:07:27;;;;;;;3.10;2.00;;;9.00;99.90;;;;;;5092123;28;20176;-74
2022/12/28 04:09:53;;;;;;;7.40;3.10;;;9.00;99.90;;;;;;5090916;28;20189;-74
2022/12/28 04:12:18;;;;;;;7.40;3.30;;;9.10;99.90;;;;;;5092280;28;20535;-75
2022/12/28 04:14:44;;;;;;;8.23;3.07;;;9.00;99.90;;;;;;5092364;28;20178;-74
2022/12/28 04:17:10;;;;;;;5.73;3.07;;;9.00;99.90;;;;;;5092125;28;20177;-75
2022/12/28 04:19:35;;;;;;;3.50;2.60;;;9.10;99.90;;;;;;5074444;28;20490;-74
2022/12/28 04:22:01;;;;;;;5.07;2.77;;;9.10;99.90;;;;;;5092086;28;20177;-75
2022/12/28 04:24:26;;;;;;;4.90;2.60;;;9.10;99.90;;;;;;5074011;28;20188;-75
2022/12/28 04:26:52;;;;;;;5.17;3.20;;;9.00;99.90;;;;;;5073950;28;20169;-74
2022/12/28 04:29:18;;;;;;;5.43;2.80;;;9.00;99.90;;;;;;5092165;28;20170;-75
2022/12/28 04:31:43;;;;;;;5.77;3.27;;;9.00;99.90;;;;;;5092136;28;20176;-74
2022/12/28 04:34:09;;;;;;;6.47;3.10;;;9.00;99.90;;;;;;5092181;28;20155;-74
2022/12/28 04:36:37;;;;;;;9.87;3.63;;;9.00;99.90;;;;;;5091859;28;20582;-74
2022/12/28 04:39:02;;;;;;;8.90;3.80;;;8.90;99.90;;;;;;5090707;28;20205;-75
2022/12/28 04:41:28;;;;;;;7.13;3.20;;;9.00;99.90;;;;;;5092726;28;20527;-74
2022/12/28 04:43:54;;;;;;;8.40;3.53;;;9.00;99.90;;;;;;5096085;28;20246;-74
2022/12/28 04:46:19;;;;;;;5.40;3.43;;;8.90;99.90;;;;;;5095629;28;20602;-74
2022/12/28 04:48:45;;;;;;;7.00;2.97;;;9.00;99.90;;;;;;5095817;28;20248;-73
2022/12/28 04:51:24;;;;;;;7.90;3.10;;;9.00;99.90;;;;;;5094417;28;20233;-74
2022/12/28 04:53:50;;;;;;;9.03;3.03;;;9.00;99.90;;;;;;5095896;28;20215;-74
2022/12/28 04:56:18;;;;;;;6.63;3.20;;;9.00;99.90;;;;;;5095736;28;20260;-74
2022/12/28 04:58:45;;;;;;;6.67;2.33;;;9.00;99.90;;;;;;5077375;28;20208;-74
2022/12/28 05:01:15;;;;;;;7.03;2.80;;;8.90;99.90;;;;;;5077584;28;20178;-74
2022/12/28 05:03:42;;;;;;;7.73;2.70;;;9.00;99.90;;;;;;5095415;28;20168;-74
2022/12/28 05:06:14;;;;;;;7.03;2.23;;;8.90;99.90;;;;;;5095872;28;20157;-74
2022/12/28 05:08:41;;;;;;;5.73;2.07;;;9.00;99.90;;;;;;5077383;28;20654;-74
2022/12/28 05:11:11;;;;;;;5.87;2.40;;;9.10;99.90;;;;;;5077298;28;20894;-74
2022/12/28 05:13:37;;;;;;;5.47;2.03;;;9.20;99.90;;;;;;5095399;28;20216;-74
2022/12/28 05:16:11;;;;;;;4.17;1.77;;;9.20;99.90;;;;;;5077189;28;20654;-74
2022/12/28 05:18:38;;;;;;;4.63;2.00;;;9.30;99.90;;;;;;5095228;28;20192;-74
2022/12/28 05:21:26;;;;;;;5.37;1.87;;;9.40;99.90;;;;;;5093935;28;20177;-75
2022/12/28 05:23:53;;;;;;;5.50;1.90;;;9.50;99.90;;;;;;5095102;28;20192;-75
2022/12/28 05:26:21;;;;;;;3.00;1.30;;;9.50;99.90;;;;;;5095079;28;20572;-75
2022/12/28 05:28:47;;;;;;;3.97;1.50;;;9.40;99.90;;;;;;5077013;28;20183;-73
2022/12/28 05:31:16;;;;;;;3.87;1.23;;;9.50;99.90;;;;;;5095006;28;20170;-74
2022/12/28 05:33:43;;;;;;;7.03;2.20;;;9.60;99.90;;;;;;5076612;28;20197;-74
2022/12/28 05:36:12;;;;;;;2.47;1.60;;;9.60;99.90;;;;;;5094958;28;20635;-74
2022/12/28 05:38:38;;;;;;;8.27;1.77;;;9.60;99.90;;;;;;5094728;28;20218;-74
2022/12/28 05:41:19;;;;;;;4.23;1.40;;;9.70;99.90;;;;;;5076641;28;20174;-73
2022/12/28 05:43:45;;;;;;;5.00;1.53;;;9.50;99.90;;;;;;5094736;28;20623;-73
2022/12/28 05:46:14;;;;;;;6.77;1.83;;;9.50;99.90;;;;;;5094783;28;20168;-73
2022/12/28 05:48:41;;;;;;;3.40;1.60;;;9.50;99.90;;;;;;5094505;28;20178;-73
2022/12/28 05:51:12;;;;;;;2.97;1.33;;;9.50;99.90;;;;;;5094855;28;20525;-73
2022/12/28 05:53:39;;;;;;;2.97;1.20;;;9.60;99.90;;;;;;5076344;28;20196;-75
2022/12/28 05:56:09;;;;;;;3.50;1.40;;;9.70;99.90;;;;;;5094592;28;20209;-76
2022/12/28 05:58:34;;;;;;;5.33;1.97;;;9.60;99.90;;;;;;5094463;28;20212;-74
2022/12/28 06:01:09;;;;;;;2.83;1.40;;;9.70;99.90;;;;;;5094615;28;20169;-74
2022/12/28 06:03:35;;;;;;;3.07;1.30;;;9.70;99.90;;;;;;5094318;28;20174;-74
2022/12/28 06:06:05;;;;;;;4.73;1.33;;;9.60;99.90;;;;;;5094906;28;20551;-74
2022/12/28 06:08:31;;;;;;;7.13;1.30;;;9.60;99.90;;;;;;5094449;28;20167;-73
2022/12/28 06:11:05;;;;;;;4.87;1.33;;;9.60;99.90;;;;;;5094393;28;20197;-74
2022/12/28 06:13:31;;;;;;;5.10;1.73;;;9.60;99.90;;;;;;5094162;28;20634;-74
2022/12/28 06:16:03;;;;;;;3.93;1.60;;;9.70;99.90;;;;;;5094081;28;20262;-72
2022/12/28 06:18:29;;;;;;;5.80;1.43;;;9.80;99.90;;;;;;5094058;28;20190;-72
2022/12/28 06:21:20;;;;;;;5.60;1.77;;;9.70;99.90;;;;;;5092979;28;20707;-73
2022/12/28 06:23:46;;;;;;;3.90;1.50;;;9.80;99.90;;;;;;5092947;28;20643;-73
2022/12/28 06:26:15;;;;;;;4.87;1.77;;;9.70;99.90;;;;;;5093888;28;20167;-72
2022/12/28 06:28:42;;;;;;;4.17;1.67;;;9.70;99.90;;;;;;5093849;28;20526;-73
2022/12/28 06:31:11;;;;;;;5.27;1.57;;;9.70;99.90;;;;;;5093552;28;20206;-72
2022/12/28 06:33:38;;;;;;;7.30;1.90;;;9.70;99.90;;;;;;5093872;28;20482;-73
2022/12/28 06:36:04;;;;;;;3.47;1.47;;;9.80;99.90;;;;;;5093751;28;20174;-73
2022/12/28 06:38:33;;;;;;;8.10;1.60;;;9.70;99.90;;;;;;5092456;28;20193;-73
2022/12/28 06:41:03;;;;;;;2.97;1.83;;;9.80;99.90;;;;;;5093665;28;20207;-73
2022/12/28 06:43:33;;;;;;;7.50;1.70;;;9.80;99.90;;;;;;5093492;28;20208;-73
2022/12/28 06:45:59;;;;;;;6.60;1.80;;;9.80;99.90;;;;;;5093395;28;20685;-73
2022/12/28 06:48:25;;;;;;;10.30;1.70;;;9.90;99.90;;;;;;5093472;28;20182;-73
2022/12/28 06:50:56;;;;;;;10.13;1.50;;;10.00;99.90;;;;;;5075350;28;20269;-73
2022/12/28 06:53:23;;;;;;;5.43;1.60;;;10.00;99.90;;;;;;5093197;28;20540;-73
2022/12/28 06:55:53;;;;;;;5.87;1.30;;;10.00;99.90;;;;;;5093368;28;20166;-72
2022/12/28 06:58:19;;;;;;;4.33;1.30;;;10.10;99.90;;;;;;5075014;28;20201;-73
2022/12/28 07:00:44;;;;;;;6.17;1.37;;;9.90;99.90;;;;;;5093287;28;20186;-73
2022/12/28 07:03:10;;;;;;;8.57;2.13;;;9.90;99.90;;;;;;5093272;28;20211;-73
2022/12/28 07:05:35;;;;;;;6.53;1.60;;;10.00;99.90;;;;;;5092810;28;20639;-73
2022/12/28 07:08:01;;;;;;;3.93;1.27;;;10.10;99.90;;;;;;5093082;28;20165;-72
2022/12/28 07:10:27;;;;;;;3.93;1.40;;;10.10;99.90;;;;;;5093074;28;20155;-72
2022/12/28 07:12:53;;;;;;;3.87;1.40;;;10.10;99.90;;;;;;5093093;28;20247;-72
2022/12/28 07:15:19;;;;;;;4.43;1.47;;;9.90;99.90;;;;;;5092787;28;20163;-72
2022/12/28 07:17:44;;;;;;;4.87;1.60;;;10.00;99.90;;;;;;5093079;28;20162;-72
2022/12/28 07:20:10;;;;;;;6.70;1.60;;;10.10;99.90;;;;;;5092586;28;20612;-74
2022/12/28 07:22:36;;;;;;;3.93;1.43;;;10.20;99.90;;;;;;5093136;28;20624;-72
2022/12/28 07:25:02;;;;;;;6.60;1.40;;;10.20;99.90;;;;;;5092615;28;20214;-73
2022/12/28 07:27:27;;;;;;;6.93;1.87;;;10.20;99.90;;;;;;5092830;28;20594;-72
2022/12/28 07:29:53;;;;;;;6.90;1.70;;;10.20;99.90;;;;;;5092591;28;20174;-73
2022/12/28 07:32:18;;;;;;;2.03;1.30;;;10.10;99.90;;;;;;5092825;28;20177;-74
2022/12/28 07:34:44;;;;;;;7.30;1.40;;;10.20;99.90;;;;;;5092908;28;20564;-72
2022/12/28 07:37:09;;;;;;;6.50;1.37;;;10.30;99.90;;;;;;5074504;28;20182;-74
2022/12/28 07:39:37;;;;;;;5.93;1.60;;;10.30;99.90;;;;;;5092637;28;20197;-74
2022/12/28 07:42:05;;;;;;;3.70;1.30;;;10.20;99.90;;;;;;5092619;28;20162;-73
2022/12/28 07:44:31;;;;;;;4.53;1.50;;;10.20;99.90;;;;;;5092552;28;20155;-72
2022/12/28 07:46:57;;;;;;;7.97;1.40;;;10.20;99.90;;;;;;5074580;28;20165;-73
2022/12/28 07:49:22;;;;;;;4.53;1.27;;;10.20;99.90;;;;;;5092553;28;20193;-73
2022/12/28 07:51:48;;;;;;;4.13;1.40;;;10.10;99.90;;;;;;5092767;28;20170;-73
2022/12/28 07:54:14;;;;;;;5.57;1.70;;;9.90;99.90;;;;;;5092596;28;20170;-73
2022/12/28 07:56:40;;;;;;;4.57;1.40;;;9.80;99.90;;;;;;5092506;28;20235;-73
2022/12/28 07:59:06;;;;;;;3.83;1.50;;;9.90;99.90;;;;;;5092225;28;20655;-73
2022/12/28 08:01:34;;;;;;;7.40;1.67;;;9.70;99.90;;;;;;5092262;28;20162;-72
2022/12/28 08:04:03;;;;;;;4.70;1.83;;;9.70;99.90;;;;;;5092379;28;20159;-73
2022/12/28 08:06:33;;;;;;;6.70;1.80;;;9.60;99.90;;;;;;5092267;28;20158;-73
2022/12/28 08:09:00;;;;;;;6.13;1.80;;;9.60;99.90;;;;;;5092427;28;20167;-72
2022/12/28 08:11:29;;;;;;;7.50;2.20;;;9.60;99.90;;;;;;5092100;28;20170;-72
2022/12/28 08:13:56;;;;;;;7.03;1.93;;;9.50;99.90;;;;;;5074012;28;20177;-72
2022/12/28 08:16:23;;;;;;;3.57;1.77;;;9.50;99.90;;;;;;5074572;28;20167;-72
2022/12/28 08:18:49;;;;;;;4.27;2.10;;;9.50;99.90;;;;;;5096485;28;20193;-72
2022/12/28 08:21:22;;;;;;;10.43;2.67;;;9.50;99.90;;;;;;5095003;28;20167;-73
2022/12/28 08:23:48;;;;;;;7.97;2.33;;;9.60;99.90;;;;;;5096406;28;20186;-73
2022/12/28 08:26:20;;;;;;;7.40;2.80;;;9.60;99.90;;;;;;5096209;28;20186;-73
2022/12/28 08:28:47;;;;;;;4.20;2.20;;;9.70;99.90;;;;;;5096409;28;20174;-73
2022/12/28 08:31:18;;;;;;;5.27;2.40;;;9.70;99.90;;;;;;5096092;28;20679;-73
2022/12/28 08:33:44;;;;;;;5.13;1.90;;;9.60;99.90;;;;;;5096142;28;20253;-73
2022/12/28 08:36:10;;;;;;;7.03;2.67;;;9.50;99.90;;;;;;5095860;28;20737;-73
2022/12/28 08:38:37;;;;;;;5.13;2.50;;;9.50;99.90;;;;;;5095910;28;20667;-73
2022/12/28 08:41:06;;;;;;;7.50;3.13;;;9.50;99.90;;;;;;5095634;28;20154;-73
2022/12/28 08:43:34;;;;;;;7.10;2.90;;;9.40;99.90;;;;;;5095862;28;20654;-73
2022/12/28 08:46:05;;;;;;;5.80;3.10;;;9.40;99.90;;;;;;5095615;28;20166;-73
2022/12/28 08:48:32;;;;;;;8.37;3.23;;;9.50;99.90;;;;;;5095769;28;20578;-73
2022/12/28 08:51:03;;;;;;;9.20;3.00;;;9.50;99.90;;;;;;5095811;28;20166;-73
2022/12/28 08:53:29;;;;;;;9.13;3.33;;;9.60;99.90;;;;;;5095618;28;20252;-73
2022/12/28 08:55:55;;;;;;;4.30;2.50;;;9.40;99.90;;;;;;5095474;28;20253;-75
2022/12/28 08:58:20;;;;;;;6.33;3.20;;;9.40;99.90;;;;;;5095476;28;20594;-73
2022/12/28 09:00:47;;;;;;;4.07;2.60;;;9.40;99.90;;;;;;5095419;28;20218;-73
2022/12/28 09:03:12;;;;;;;6.73;2.80;;;9.50;99.90;;;;;;5095404;28;20442;-74
2022/12/28 09:05:38;;;;;;;10.63;3.17;;;9.60;99.90;;;;;;5095587;28;20162;-74
2022/12/28 09:08:05;;;;;;;9.33;2.90;;;9.50;99.90;;;;;;5077223;28;20178;-75
2022/12/28 09:10:30;;;;;;;5.87;2.73;;;9.40;99.90;;;;;;5077118;28;20174;-75
2022/12/28 09:12:56;;;;;;;6.77;2.80;;;9.50;99.90;;;;;;5095175;28;20162;-74
2022/12/28 09:15:23;;;;;;;7.93;2.90;;;9.50;99.90;;;;;;5095485;28;20187;-75
2022/12/28 09:17:48;;;;;;;5.47;2.77;;;9.50;99.90;;;;;;5095400;28;20162;-73
2022/12/28 09:20:14;;;;;;;6.60;3.10;;;9.50;99.90;;;;;;5093840;28;20308;-74
2022/12/28 09:22:39;;;;;;;6.43;2.83;;;9.60;99.90;;;;;;5076886;28;20172;-73
2022/12/28 09:25:06;;;;;;;5.07;3.20;;;9.60;99.90;;;;;;5094211;28;20186;-73
2022/12/28 09:27:31;;;;;;;11.33;3.10;;;9.60;99.90;;;;;;5075367;28;20528;-74
2022/12/28 09:29:57;;;;;;;10.67;3.77;;;9.70;99.90;;;;;;5094014;28;20177;-74
2022/12/28 09:32:22;;;;;;;5.37;2.70;;;9.70;99.90;;;;;;5093928;28;20241;-74
2022/12/28 09:34:48;;;;;;;10.53;3.07;;;9.80;99.90;;;;;;5075966;28;20166;-76
2022/12/28 09:37:14;;;;;;;4.23;2.57;;;9.70;99.90;;;;;;5075748;28;20227;-74
2022/12/28 09:39:39;;;;;;;8.47;2.50;;;9.60;99.90;;;;;;5093617;28;20263;-74
2022/12/28 09:42:27;;;;;;;5.53;3.10;;;9.60;99.90;;;;;;5075390;28;20235;-74
2022/12/28 09:45:05;;;;;;;6.50;2.67;;;9.70;99.90;;;;;;5093823;28;20268;-74
2022/12/28 09:47:44;;;;;;;5.77;2.80;;;9.80;99.90;;;;;;5093686;28;20189;-74
2022/12/28 09:50:16;;;;;;;6.67;2.60;;;9.80;99.90;;;;;;5093542;28;20165;-74
2022/12/28 09:53:15;;;;;;;7.90;2.70;;;9.80;99.90;;;;;;5075239;28;20174;-75
2022/12/28 09:55:47;;;;;;;6.97;3.00;;;9.70;99.90;;;;;;5093741;28;20662;-75
2022/12/28 09:58:15;;;;;;;9.70;3.03;;;9.70;99.90;;;;;;5093470;28;20179;-74
2022/12/28 10:00:47;;;;;;;7.90;3.23;;;9.80;99.90;;;;;;5093546;28;20163;-76
2022/12/28 10:03:23;;;;;;;8.10;3.47;;;9.70;99.90;;;;;;5093259;28;20555;-75
2022/12/28 10:05:50;;;;;;;8.97;2.77;;;9.70;99.90;;;;;;5093547;28;20198;-74
2022/12/28 10:08:20;;;;;;;4.97;2.20;;;9.70;99.90;;;;;;5093172;28;20216;-75
2022/12/28 10:10:46;;;;;;;5.83;2.53;;;9.70;99.90;;;;;;5075202;28;20176;-75
2022/12/28 10:13:21;;;;;;;7.97;2.80;;;9.90;99.90;;;;;;5093294;28;20170;-74
2022/12/28 10:15:47;;;;;;;4.47;2.20;;;9.80;99.90;;;;;;5093286;28;20526;-75
2022/12/28 10:18:14;;;;;;;4.77;2.70;;;10.00;99.90;;;;;;5093098;28;20171;-74
2022/12/28 10:20:42;;;;;;;6.20;2.10;;;9.90;99.90;;;;;;5074970;28;20178;-75
2022/12/28 10:23:13;;;;;;;6.47;2.20;;;9.80;99.90;;;;;;5092928;28;20174;-74
2022/12/28 10:25:39;;;;;;;7.50;2.43;;;9.80;99.90;;;;;;5054930;28;1109696;-74
2022/12/28 10:28:07;;;;;;;4.07;2.23;;;9.90;99.90;;;;;;5093978;28;20174;-73
2022/12/28 10:30:44;;;;;;;4.40;2.13;;;10.00;99.90;;;;;;5075802;28;20245;-74
2022/12/28 10:33:16;;;;;;;2.80;1.90;;;10.10;99.90;;;;;;5075725;28;20196;-74
2022/12/28 10:35:49;;;;;;;4.57;2.10;;;10.00;99.90;;;;;;5075538;28;20616;-74
2022/12/28 10:38:19;;;;;;;6.87;2.50;;;9.80;99.90;;;;;;5093549;28;20212;-74
2022/12/28 10:41:04;;;;;;;4.50;1.87;;;9.80;99.90;;;;;;5092907;28;20178;-74
2022/12/28 10:43:34;;;;;;;2.97;1.87;;;9.80;99.90;;;;;;5093504;28;20639;-74
2022/12/28 10:46:01;;;;;;;5.53;2.30;;;9.80;99.90;;;;;;5093661;28;20249;-74
2022/12/28 10:48:31;;;;;;;5.07;2.23;;;9.80;99.90;;;;;;5093323;28;20173;-76
2022/12/28 10:51:09;;;;;;;5.80;2.30;;;9.90;99.90;;;;;;5075334;28;20234;-75
2022/12/28 10:53:38;;;;;;;5.77;2.47;;;10.00;99.90;;;;;;5075150;28;20170;-75
2022/12/28 10:56:12;;;;;;;9.20;2.83;;;10.00;99.90;;;;;;5075334;28;20174;-75
2022/12/28 10:58:39;;;;;;;6.10;1.80;;;9.90;99.90;;;;;;5093150;28;20186;-75
2022/12/28 11:01:15;;;;;;;6.53;1.90;;;10.00;99.90;;;;;;5093474;28;20158;-76
2022/12/28 11:03:44;;;;;;;3.13;1.67;;;9.90;99.90;;;;;;5093314;28;20170;-75
2022/12/28 11:06:14;;;;;;;5.30;2.03;;;9.80;99.90;;;;;;5075118;28;20173;-75
2022/12/28 11:08:42;;;;;;;4.23;2.00;;;9.90;99.90;;;;;;5093219;28;20635;-73
2022/12/28 11:11:20;;;;;;;6.13;2.00;;;9.90;99.90;;;;;;5093233;28;20289;-73
2022/12/28 11:13:52;;;;;;;5.60;2.30;;;10.10;99.90;;;;;;5092897;28;20674;-74
2022/12/28 11:16:17;;;;;;;11.10;2.50;;;10.20;99.90;;;;;;5093082;28;20162;-73
2022/12/28 11:18:43;;;;;;;5.07;2.10;;;10.20;99.90;;;;;;5092866;28;20206;-73
2022/12/28 11:21:14;;;;;;;6.23;2.20;;;10.20;99.90;;;;;;5092920;28;20255;-73
2022/12/28 11:23:39;;;;;;;4.90;1.60;;;10.20;99.90;;;;;;5075205;28;20197;-74
2022/12/28 11:26:11;;;;;;;5.87;1.87;;;10.30;99.90;;;;;;5092792;28;20166;-74
2022/12/28 11:28:39;;;;;;;8.23;2.17;;;10.30;99.90;;;;;;5074555;28;20178;-75
2022/12/28 11:31:06;;;;;;;2.67;1.57;;;10.40;99.90;;;;;;5092623;28;20220;-73
2022/12/28 11:33:39;;;;;;;6.23;2.50;;;10.30;99.90;;;;;;5092843;28;20528;-74
2022/12/28 11:36:12;;;;;;;7.17;1.73;;;10.40;99.90;;;;;;5074359;28;20170;-73
2022/12/28 11:38:43;;;;;;;4.40;2.20;;;10.30;99.90;;;;;;5074629;28;20193;-73
2022/12/28 11:41:30;;;;;;;9.47;2.40;;;10.40;99.90;;;;;;5092563;28;20190;-74
2022/12/28 11:44:03;;;;;;;6.37;2.13;;;10.50;99.90;;;;;;5073959;28;20269;-74
2022/12/28 11:46:29;;;;;;;5.67;2.03;;;10.50;99.90;;;;;;5092585;28;20166;-74
2022/12/28 11:48:57;;;;;;;8.30;1.97;;;10.40;99.90;;;;;;5092706;28;20162;-74
2022/12/28 11:51:24;;;;;;;6.70;2.13;;;10.30;99.90;;;;;;5092283;28;20245;-74
2022/12/28 11:54:28;;;;;;;8.30;2.53;;;10.30;99.90;;;;;;5092651;28;20155;-74
2022/12/28 11:56:57;;;;;;;6.40;2.37;;;10.20;99.90;;;;;;5088079;28;20213;-73
2022/12/28 11:59:22;;;;;;;6.00;2.07;;;10.30;99.90;;;;;;5092499;28;20255;-73
2022/12/28 12:01:50;;;;;;;5.87;1.77;;;10.30;99.90;;;;;;5092766;28;20175;-73
2022/12/28 12:04:35;;;;;;;9.27;2.40;;;10.40;99.90;;;;;;5092388;28;20623;-73
2022/12/28 12:07:01;;;;;;;5.67;2.20;;;10.40;99.90;;;;;;5074403;28;20631;-74
2022/12/28 12:09:31;;;;;;;4.77;2.23;;;10.40;99.90;;;;;;5092396;28;20171;-74
2022/12/28 12:12:02;;;;;;;6.17;2.10;;;10.40;99.90;;;;;;5092349;28;20194;-75
2022/12/28 12:14:37;;;;;;;7.57;2.27;;;10.40;99.90;;;;;;5092448;28;20162;-74
2022/12/28 12:17:14;;;;;;;6.80;1.83;;;10.40;99.90;;;;;;5092408;28;20170;-74
2022/12/28 12:19:47;;;;;;;6.03;2.00;;;10.50;99.90;;;;;;5074090;28;20225;-74
2022/12/28 12:22:24;;;;;;;5.80;2.20;;;10.50;99.90;;;;;;5092250;28;20170;-74
2022/12/28 12:25:18;;;;;;;8.00;1.90;;;10.60;99.90;;;;;;5074082;28;20235;-74
2022/12/28 12:27:52;;;;;;;8.27;2.10;;;10.50;99.90;;;;;;5092235;28;20186;-75
2022/12/28 12:30:20;;;;;;;6.30;1.87;;;10.60;99.90;;;;;;5073948;28;20166;-75
2022/12/28 12:33:05;;;;;;;7.10;2.13;;;10.70;99.90;;;;;;5091813;28;20166;-74
2022/12/28 12:35:45;;;;;;;5.27;1.60;;;10.70;99.90;;;;;;5092263;28;20247;-74
2022/12/28 12:38:29;;;;;;;7.90;1.97;;;10.50;99.90;;;;;;5092119;28;20166;-74
2022/12/28 12:41:09;;;;;;;6.53;1.93;;;10.60;99.90;;;;;;5092030;28;20658;-73
2022/12/28 12:44:16;;;;;;;5.47;1.70;;;10.40;99.90;;;;;;5073909;28;20182;-73
2022/12/28 12:46:47;;;;;;;7.90;1.90;;;10.40;99.90;;;;;;5092078;28;20167;-74
2022/12/28 12:49:52;;;;;;;7.10;1.70;;;10.60;99.90;;;;;;5092086;28;20190;-74
2022/12/28 12:52:46;;;;;;;7.17;1.70;;;10.60;99.90;;;;;;5091890;28;20545;-74
2022/12/28 12:55:34;;;;;;;6.30;2.53;;;10.70;99.90;;;;;;5092069;28;20176;-74
2022/12/28 12:58:25;;;;;;;6.73;2.30;;;10.70;99.90;;;;;;5073787;28;20166;-72
2022/12/28 13:01:16;;;;;;;3.73;1.43;;;10.70;99.90;;;;;;5091798;28;20170;-73
2022/12/28 13:03:48;;;;;;;7.50;2.60;;;10.60;99.90;;;;;;5094253;28;20174;-74
2022/12/28 13:06:18;;;;;;;7.53;1.90;;;10.80;99.90;;;;;;5095555;28;20174;-74
2022/12/28 13:08:57;;;;;;;4.47;2.23;;;10.70;99.90;;;;;;5095626;28;20163;-73
2022/12/28 13:11:23;;;;;;;5.60;2.40;;;10.80;99.90;;;;;;5095487;28;20170;-73
2022/12/28 13:13:51;;;;;;;3.73;1.63;;;10.90;99.90;;;;;;5077393;28;20175;-75
2022/12/28 13:16:20;;;;;;;5.47;2.27;;;10.90;99.90;;;;;;5095280;28;20165;-74
2022/12/28 13:19:00;;;;;;;3.43;1.47;;;10.90;99.90;;;;;;5095305;28;20189;-72
2022/12/28 13:21:28;;;;;;;4.37;1.63;;;11.00;99.90;;;;;;5077227;28;20169;-74
2022/12/28 13:23:54;;;;;;;9.70;2.20;;;10.90;99.90;;;;;;5095313;28;20490;-74
2022/12/28 13:26:28;;;;;;;7.70;1.77;;;11.00;99.90;;;;;;5095272;28;20159;-72
2022/12/28 13:29:08;;;;;;;6.43;1.50;;;11.10;99.90;;;;;;5095581;28;20174;-75
2022/12/28 13:31:39;;;;;;;5.77;2.00;;;11.20;99.90;;;;;;5076385;28;20176;-72
2022/12/28 13:34:28;;;;;;;3.13;1.37;;;11.30;99.90;;;;;;5095053;28;20174;-75
2022/12/28 13:37:00;;;;;;;3.57;1.40;;;11.20;99.90;;;;;;5094894;28;20171;-73
2022/12/28 13:39:33;;;;;;;2.83;1.47;;;11.20;99.90;;;;;;5094936;28;20194;-74